Hickory Hill, Arkansas
Current Conditions -  °F | °C
As of 6:53 PM on Sunday 23 Nov 2014 (Local Time) from KRUE Reporting Station
Overcast Overcast  
Wind Chill: 61°   Ceiling: 6000
Heat Index: 61°   Visibility: 10mi
Dew Point: 58°   Wind: 0mph
Humidity: 90%   Direction: NA
Pressure: 29.37"   Gusts: NA
Location:  35.227°N, 92.6879°W
Report Text: KRUE 240053Z AUTO 00000KT 10SM SCT031 BKN060 OVC085 16/14 A2937 RMK AO2 SLP940 T01610144
Loading
Personal Weather Stations






























Interactive Weather Map New forecast layout! Learn more

10-Day Weather Forecast

Advertisements
Track Severe Weather on mobile